sensor_id;sensor_type;location;lat;lon;timestamp;temperature;humidity
21318;DHT22;10818;50.830;6.524;2023-04-15T00:00:29;5.80;99.90
21318;DHT22;10818;50.830;6.524;2023-04-15T00:05:29;5.70;99.90
21318;DHT22;10818;50.830;6.524;2023-04-15T00:10:30;5.60;99.90
21318;DHT22;10818;50.830;6.524;2023-04-15T00:15:31;5.50;99.90
21318;DHT22;10818;50.830;6.524;2023-04-15T00:20:32;5.60;99.90
21318;DHT22;10818;50.830;6.524;2023-04-15T00:25:32;5.50;99.90
21318;DHT22;10818;50.830;6.524;2023-04-15T00:30:33;5.50;99.90
21318;DHT22;10818;50.830;6.524;2023-04-15T00:35:34;5.50;99.90
21318;DHT22;10818;50.830;6.524;2023-04-15T00:40:36;5.50;99.90
21318;DHT22;10818;50.830;6.524;2023-04-15T00:45:37;5.40;99.90
21318;DHT22;10818;50.830;6.524;2023-04-15T00:50:37;5.30;99.90
21318;DHT22;10818;50.830;6.524;2023-04-15T00:55:38;5.10;99.90
21318;DHT22;10818;50.830;6.524;2023-04-15T01:00:39;5.20;99.90
21318;DHT22;10818;50.830;6.524;2023-04-15T01:05:40;5.10;99.90
21318;DHT22;10818;50.830;6.524;2023-04-15T01:10:41;5.10;99.90
21318;DHT22;10818;50.830;6.524;2023-04-15T01:15:42;5.10;99.90
21318;DHT22;10818;50.830;6.524;2023-04-15T01:20:42;4.90;99.90
21318;DHT22;10818;50.830;6.524;2023-04-15T01:25:43;4.70;99.90
21318;DHT22;10818;50.830;6.524;2023-04-15T01:30:44;4.60;99.90
21318;DHT22;10818;50.830;6.524;2023-04-15T01:35:44;4.00;99.90
21318;DHT22;10818;50.830;6.524;2023-04-15T01:40:45;4.10;99.90
21318;DHT22;10818;50.830;6.524;2023-04-15T01:45:46;4.30;99.90
21318;DHT22;10818;50.830;6.524;2023-04-15T01:50:47;4.50;99.90
21318;DHT22;10818;50.830;6.524;2023-04-15T01:55:47;4.40;99.90
21318;DHT22;10818;50.830;6.524;2023-04-15T02:00:48;4.30;99.90
21318;DHT22;10818;50.830;6.524;2023-04-15T02:05:48;4.40;99.90
21318;DHT22;10818;50.830;6.524;2023-04-15T02:10:50;4.60;99.90
21318;DHT22;10818;50.830;6.524;2023-04-15T02:15:50;4.60;99.90
21318;DHT22;10818;50.830;6.524;2023-04-15T02:20:52;4.50;99.90
21318;DHT22;10818;50.830;6.524;2023-04-15T02:25:52;4.40;99.90
21318;DHT22;10818;50.830;6.524;2023-04-15T02:30:53;4.40;99.90
21318;DHT22;10818;50.830;6.524;2023-04-15T02:35:56;4.30;99.90
21318;DHT22;10818;50.830;6.524;2023-04-15T02:40:56;4.30;99.90
21318;DHT22;10818;50.830;6.524;2023-04-15T02:45:57;4.20;99.90
21318;DHT22;10818;50.830;6.524;2023-04-15T02:51:10;4.10;99.90
21318;DHT22;10818;50.830;6.524;2023-04-15T02:56:11;3.80;99.90
21318;DHT22;10818;50.830;6.524;2023-04-15T03:01:11;3.90;99.90
21318;DHT22;10818;50.830;6.524;2023-04-15T03:06:12;3.90;99.90
21318;DHT22;10818;50.830;6.524;2023-04-15T03:11:13;3.90;99.90
21318;DHT22;10818;50.830;6.524;2023-04-15T03:16:14;4.00;99.90
21318;DHT22;10818;50.830;6.524;2023-04-15T03:21:15;3.80;99.90
21318;DHT22;10818;50.830;6.524;2023-04-15T03:26:25;3.80;99.90
21318;DHT22;10818;50.830;6.524;2023-04-15T03:31:26;3.70;99.90
21318;DHT22;10818;50.830;6.524;2023-04-15T03:36:29;3.80;99.90
21318;DHT22;10818;50.830;6.524;2023-04-15T03:41:32;3.80;99.90
21318;DHT22;10818;50.830;6.524;2023-04-15T03:46:32;3.80;99.90
21318;DHT22;10818;50.830;6.524;2023-04-15T03:51:33;3.60;99.90
21318;DHT22;10818;50.830;6.524;2023-04-15T03:56:33;3.40;99.90
21318;DHT22;10818;50.830;6.524;2023-04-15T04:01:34;3.40;99.90
21318;DHT22;10818;50.830;6.524;2023-04-15T04:06:35;3.50;99.90
21318;DHT22;10818;50.830;6.524;2023-04-15T04:11:35;3.60;99.90
21318;DHT22;10818;50.830;6.524;2023-04-15T04:16:36;3.60;99.90
21318;DHT22;10818;50.830;6.524;2023-04-15T04:21:37;3.50;99.90
21318;DHT22;10818;50.830;6.524;2023-04-15T04:26:38;3.40;99.90
21318;DHT22;10818;50.830;6.524;2023-04-15T04:31:39;3.60;99.90
21318;DHT22;10818;50.830;6.524;2023-04-15T04:36:39;3.40;99.90
21318;DHT22;10818;50.830;6.524;2023-04-15T04:41:40;3.50;99.90
21318;DHT22;10818;50.830;6.524;2023-04-15T04:46:41;3.50;99.90
21318;DHT22;10818;50.830;6.524;2023-04-15T04:51:41;3.40;99.90
21318;DHT22;10818;50.830;6.524;2023-04-15T04:56:41;3.30;99.90
21318;DHT22;10818;50.830;6.524;2023-04-15T05:01:42;3.00;99.90
21318;DHT22;10818;50.830;6.524;2023-04-15T05:06:42;2.80;99.90
21318;DHT22;10818;50.830;6.524;2023-04-15T05:11:43;2.70;99.90
21318;DHT22;10818;50.830;6.524;2023-04-15T05:16:43;3.00;99.90
21318;DHT22;10818;50.830;6.524;2023-04-15T05:21:44;3.20;99.90
21318;DHT22;10818;50.830;6.524;2023-04-15T05:26:44;3.60;99.90
21318;DHT22;10818;50.830;6.524;2023-04-15T05:31:44;4.10;99.90
21318;DHT22;10818;50.830;6.524;2023-04-15T05:36:45;4.70;99.90
21318;DHT22;10818;50.830;6.524;2023-04-15T05:41:45;4.80;99.90
21318;DHT22;10818;50.830;6.524;2023-04-15T05:46:46;5.30;99.90
21318;DHT22;10818;50.830;6.524;2023-04-15T05:51:46;5.60;99.90
21318;DHT22;10818;50.830;6.524;2023-04-15T05:56:47;5.70;99.90
21318;DHT22;10818;50.830;6.524;2023-04-15T06:01:48;6.10;99.90
21318;DHT22;10818;50.830;6.524;2023-04-15T06:06:49;6.60;99.90
21318;DHT22;10818;50.830;6.524;2023-04-15T06:11:50;6.70;99.90
21318;DHT22;10818;50.830;6.524;2023-04-15T06:16:51;7.10;99.90
21318;DHT22;10818;50.830;6.524;2023-04-15T06:21:51;7.60;99.90
21318;DHT22;10818;50.830;6.524;2023-04-15T06:26:51;8.00;99.90
21318;DHT22;10818;50.830;6.524;2023-04-15T06:31:52;8.20;99.90
21318;DHT22;10818;50.830;6.524;2023-04-15T06:36:52;8.50;99.90
21318;DHT22;10818;50.830;6.524;2023-04-15T06:41:54;8.80;99.90
21318;DHT22;10818;50.830;6.524;2023-04-15T06:46:54;9.10;99.90
21318;DHT22;10818;50.830;6.524;2023-04-15T06:51:54;9.50;99.90
21318;DHT22;10818;50.830;6.524;2023-04-15T06:56:55;10.00;99.90
21318;DHT22;10818;50.830;6.524;2023-04-15T07:01:56;10.20;99.90
21318;DHT22;10818;50.830;6.524;2023-04-15T07:06:56;10.40;99.90
21318;DHT22;10818;50.830;6.524;2023-04-15T07:11:56;11.40;99.90
21318;DHT22;10818;50.830;6.524;2023-04-15T07:16:57;13.50;99.90
21318;DHT22;10818;50.830;6.524;2023-04-15T07:21:57;17.00;99.90
21318;DHT22;10818;50.830;6.524;2023-04-15T07:26:58;18.60;99.90
21318;DHT22;10818;50.830;6.524;2023-04-15T07:31:58;18.40;99.90
21318;DHT22;10818;50.830;6.524;2023-04-15T07:36:59;19.40;99.90
21318;DHT22;10818;50.830;6.524;2023-04-15T07:41:59;19.20;99.90
21318;DHT22;10818;50.830;6.524;2023-04-15T07:47:01;19.60;98.70
21318;DHT22;10818;50.830;6.524;2023-04-15T07:52:01;19.30;99.10
21318;DHT22;10818;50.830;6.524;2023-04-15T07:57:02;19.70;98.90
21318;DHT22;10818;50.830;6.524;2023-04-15T08:02:02;18.60;98.30
21318;DHT22;10818;50.830;6.524;2023-04-15T08:07:03;18.60;98.30
21318;DHT22;10818;50.830;6.524;2023-04-15T08:12:04;21.00;95.80
21318;DHT22;10818;50.830;6.524;2023-04-15T08:17:04;20.00;96.50
21318;DHT22;10818;50.830;6.524;2023-04-15T08:22:05;19.60;96.30
21318;DHT22;10818;50.830;6.524;2023-04-15T08:27:06;19.00;96.60
21318;DHT22;10818;50.830;6.524;2023-04-15T08:32:07;20.00;97.10
21318;DHT22;10818;50.830;6.524;2023-04-15T08:37:07;20.50;96.30
21318;DHT22;10818;50.830;6.524;2023-04-15T08:42:11;20.30;96.50
21318;DHT22;10818;50.830;6.524;2023-04-15T08:47:15;19.00;98.40
21318;DHT22;10818;50.830;6.524;2023-04-15T08:52:19;17.70;99.90
21318;DHT22;10818;50.830;6.524;2023-04-15T08:57:20;17.70;99.90
21318;DHT22;10818;50.830;6.524;2023-04-15T09:02:23;17.90;99.90
21318;DHT22;10818;50.830;6.524;2023-04-15T09:07:24;17.70;99.90
21318;DHT22;10818;50.830;6.524;2023-04-15T09:12:24;16.90;99.90
21318;DHT22;10818;50.830;6.524;2023-04-15T09:17:25;16.90;99.90
21318;DHT22;10818;50.830;6.524;2023-04-15T09:22:30;16.20;99.90
21318;DHT22;10818;50.830;6.524;2023-04-15T09:27:34;15.80;99.90
21318;DHT22;10818;50.830;6.524;2023-04-15T09:32:35;15.90;99.90
21318;DHT22;10818;50.830;6.524;2023-04-15T09:37:47;15.80;99.90
21318;DHT22;10818;50.830;6.524;2023-04-15T09:42:54;15.90;99.90
21318;DHT22;10818;50.830;6.524;2023-04-15T09:47:56;16.00;99.90
21318;DHT22;10818;50.830;6.524;2023-04-15T09:52:57;15.80;99.90
21318;DHT22;10818;50.830;6.524;2023-04-15T09:57:58;15.70;99.90
21318;DHT22;10818;50.830;6.524;2023-04-15T10:02:59;15.50;99.90
21318;DHT22;10818;50.830;6.524;2023-04-15T10:07:59;15.10;99.90
21318;DHT22;10818;50.830;6.524;2023-04-15T10:13:01;15.20;99.90
21318;DHT22;10818;50.830;6.524;2023-04-15T10:18:02;15.20;99.90
21318;DHT22;10818;50.830;6.524;2023-04-15T10:23:04;15.70;99.90
21318;DHT22;10818;50.830;6.524;2023-04-15T10:28:06;16.00;99.90
21318;DHT22;10818;50.830;6.524;2023-04-15T10:33:07;16.10;99.90
21318;DHT22;10818;50.830;6.524;2023-04-15T10:43:27;16.80;99.90
21318;DHT22;10818;50.830;6.524;2023-04-15T10:48:28;17.40;99.90
21318;DHT22;10818;50.830;6.524;2023-04-15T10:53:30;17.90;99.90
21318;DHT22;10818;50.830;6.524;2023-04-15T10:58:39;17.40;99.90
21318;DHT22;10818;50.830;6.524;2023-04-15T11:03:41;17.20;99.90
21318;DHT22;10818;50.830;6.524;2023-04-15T11:08:55;17.10;99.90
21318;DHT22;10818;50.830;6.524;2023-04-15T11:13:55;16.80;99.80
21318;DHT22;10818;50.830;6.524;2023-04-15T11:18:56;16.50;99.90
21318;DHT22;10818;50.830;6.524;2023-04-15T11:23:57;16.80;99.90
21318;DHT22;10818;50.830;6.524;2023-04-15T11:28:57;16.50;99.90
21318;DHT22;10818;50.830;6.524;2023-04-15T11:33:59;16.50;99.90
21318;DHT22;10818;50.830;6.524;2023-04-15T11:39:00;16.70;99.90
21318;DHT22;10818;50.830;6.524;2023-04-15T11:44:01;16.50;99.90
21318;DHT22;10818;50.830;6.524;2023-04-15T11:49:01;16.70;99.90
21318;DHT22;10818;50.830;6.524;2023-04-15T11:54:04;16.10;99.90
21318;DHT22;10818;50.830;6.524;2023-04-15T11:59:04;16.20;99.90
21318;DHT22;10818;50.830;6.524;2023-04-15T12:04:11;16.40;99.90
21318;DHT22;10818;50.830;6.524;2023-04-15T12:09:12;15.70;99.90
21318;DHT22;10818;50.830;6.524;2023-04-15T12:14:20;16.00;99.90
21318;DHT22;10818;50.830;6.524;2023-04-15T12:19:55;16.00;99.90
21318;DHT22;10818;50.830;6.524;2023-04-15T12:24:53;16.20;99.90
21318;DHT22;10818;50.830;6.524;2023-04-15T12:30:02;16.50;99.90
21318;DHT22;10818;50.830;6.524;2023-04-15T12:35:03;16.70;99.90
21318;DHT22;10818;50.830;6.524;2023-04-15T12:40:04;16.50;99.90
21318;DHT22;10818;50.830;6.524;2023-04-15T12:45:07;16.10;99.90
21318;DHT22;10818;50.830;6.524;2023-04-15T12:50:08;16.50;99.90
21318;DHT22;10818;50.830;6.524;2023-04-15T12:55:08;16.30;99.90
21318;DHT22;10818;50.830;6.524;2023-04-15T13:00:09;15.90;99.90
21318;DHT22;10818;50.830;6.524;2023-04-15T13:05:09;15.50;99.90
21318;DHT22;10818;50.830;6.524;2023-04-15T13:10:10;15.30;99.90
21318;DHT22;10818;50.830;6.524;2023-04-15T13:15:11;15.20;99.90
21318;DHT22;10818;50.830;6.524;2023-04-15T13:20:12;15.60;99.90
21318;DHT22;10818;50.830;6.524;2023-04-15T13:25:12;15.20;99.90
21318;DHT22;10818;50.830;6.524;2023-04-15T13:30:13;14.60;99.90
21318;DHT22;10818;50.830;6.524;2023-04-15T13:35:13;14.50;99.90
21318;DHT22;10818;50.830;6.524;2023-04-15T13:40:14;14.60;99.90
21318;DHT22;10818;50.830;6.524;2023-04-15T13:45:14;14.80;99.90
21318;DHT22;10818;50.830;6.524;2023-04-15T13:50:15;14.40;99.90
21318;DHT22;10818;50.830;6.524;2023-04-15T13:55:16;14.70;99.90
21318;DHT22;10818;50.830;6.524;2023-04-15T14:00:16;14.50;99.90
21318;DHT22;10818;50.830;6.524;2023-04-15T14:05:17;14.50;99.90
21318;DHT22;10818;50.830;6.524;2023-04-15T14:10:17;14.70;99.90
21318;DHT22;10818;50.830;6.524;2023-04-15T14:15:18;13.90;99.90
21318;DHT22;10818;50.830;6.524;2023-04-15T14:20:18;14.00;99.90
21318;DHT22;10818;50.830;6.524;2023-04-15T14:25:19;13.80;99.90
21318;DHT22;10818;50.830;6.524;2023-04-15T14:30:19;13.70;99.90
21318;DHT22;10818;50.830;6.524;2023-04-15T14:35:20;13.30;99.90
21318;DHT22;10818;50.830;6.524;2023-04-15T14:40:21;13.30;99.90
21318;DHT22;10818;50.830;6.524;2023-04-15T14:45:21;13.60;99.90
21318;DHT22;10818;50.830;6.524;2023-04-15T14:50:22;13.70;99.90
21318;DHT22;10818;50.830;6.524;2023-04-15T14:55:22;13.80;99.90
21318;DHT22;10818;50.830;6.524;2023-04-15T15:00:23;13.60;99.90
21318;DHT22;10818;50.830;6.524;2023-04-15T15:05:23;13.80;99.90
21318;DHT22;10818;50.830;6.524;2023-04-15T15:10:23;13.70;99.90
21318;DHT22;10818;50.830;6.524;2023-04-15T15:15:24;14.00;99.90
21318;DHT22;10818;50.830;6.524;2023-04-15T15:20:24;13.70;99.90
21318;DHT22;10818;50.830;6.524;2023-04-15T15:25:25;13.80;99.90
21318;DHT22;10818;50.830;6.524;2023-04-15T15:30:26;13.40;99.90
21318;DHT22;10818;50.830;6.524;2023-04-15T15:35:26;13.50;99.90
21318;DHT22;10818;50.830;6.524;2023-04-15T15:40:27;13.50;99.90
21318;DHT22;10818;50.830;6.524;2023-04-15T15:45:27;13.30;99.90
21318;DHT22;10818;50.830;6.524;2023-04-15T15:50:28;13.00;99.90
21318;DHT22;10818;50.830;6.524;2023-04-15T15:55:28;13.00;99.90
21318;DHT22;10818;50.830;6.524;2023-04-15T16:00:28;12.70;99.90
21318;DHT22;10818;50.830;6.524;2023-04-15T16:05:29;12.90;99.90
21318;DHT22;10818;50.830;6.524;2023-04-15T16:10:29;13.00;99.90
21318;DHT22;10818;50.830;6.524;2023-04-15T16:15:30;13.20;99.90
21318;DHT22;10818;50.830;6.524;2023-04-15T16:20:30;13.30;99.90
21318;DHT22;10818;50.830;6.524;2023-04-15T16:25:31;13.20;99.90
21318;DHT22;10818;50.830;6.524;2023-04-15T16:30:33;13.20;99.90
21318;DHT22;10818;50.830;6.524;2023-04-15T16:35:34;13.00;99.90
21318;DHT22;10818;50.830;6.524;2023-04-15T16:40:36;13.00;99.90
21318;DHT22;10818;50.830;6.524;2023-04-15T16:45:37;13.20;99.90
21318;DHT22;10818;50.830;6.524;2023-04-15T16:50:37;13.00;99.90
21318;DHT22;10818;50.830;6.524;2023-04-15T16:55:38;12.90;99.90
21318;DHT22;10818;50.830;6.524;2023-04-15T17:00:38;12.90;99.90
21318;DHT22;10818;50.830;6.524;2023-04-15T17:05:39;12.60;99.90
21318;DHT22;10818;50.830;6.524;2023-04-15T17:10:41;12.60;99.90
21318;DHT22;10818;50.830;6.524;2023-04-15T17:15:41;12.30;99.90
21318;DHT22;10818;50.830;6.524;2023-04-15T17:20:42;11.90;99.90
21318;DHT22;10818;50.830;6.524;2023-04-15T17:25:42;11.80;99.90
21318;DHT22;10818;50.830;6.524;2023-04-15T17:30:43;11.70;99.90
21318;DHT22;10818;50.830;6.524;2023-04-15T17:35:43;11.60;99.90
21318;DHT22;10818;50.830;6.524;2023-04-15T17:40:44;11.40;99.90
21318;DHT22;10818;50.830;6.524;2023-04-15T17:45:44;11.10;99.90
21318;DHT22;10818;50.830;6.524;2023-04-15T17:50:46;10.90;99.90
21318;DHT22;10818;50.830;6.524;2023-04-15T17:55:46;10.90;99.90
21318;DHT22;10818;50.830;6.524;2023-04-15T18:00:47;10.80;99.90
21318;DHT22;10818;50.830;6.524;2023-04-15T18:05:47;10.80;99.90
21318;DHT22;10818;50.830;6.524;2023-04-15T18:10:48;10.70;99.90
21318;DHT22;10818;50.830;6.524;2023-04-15T18:15:48;10.70;99.90
21318;DHT22;10818;50.830;6.524;2023-04-15T18:20:50;10.70;99.90
21318;DHT22;10818;50.830;6.524;2023-04-15T18:25:50;10.60;99.90
21318;DHT22;10818;50.830;6.524;2023-04-15T18:30:51;10.50;99.90
21318;DHT22;10818;50.830;6.524;2023-04-15T18:35:51;10.50;99.90
21318;DHT22;10818;50.830;6.524;2023-04-15T18:40:52;10.60;99.90
21318;DHT22;10818;50.830;6.524;2023-04-15T18:45:52;10.60;99.90
21318;DHT22;10818;50.830;6.524;2023-04-15T18:50:54;10.50;99.90
21318;DHT22;10818;50.830;6.524;2023-04-15T18:55:57;10.60;99.90
21318;DHT22;10818;50.830;6.524;2023-04-15T19:01:00;10.50;99.90
21318;DHT22;10818;50.830;6.524;2023-04-15T19:06:01;10.60;99.90
21318;DHT22;10818;50.830;6.524;2023-04-15T19:11:01;10.50;99.90
21318;DHT22;10818;50.830;6.524;2023-04-15T19:16:02;10.30;99.90
21318;DHT22;10818;50.830;6.524;2023-04-15T19:21:02;10.10;99.90
21318;DHT22;10818;50.830;6.524;2023-04-15T19:26:03;10.10;99.90
21318;DHT22;10818;50.830;6.524;2023-04-15T19:31:03;10.20;99.90
21318;DHT22;10818;50.830;6.524;2023-04-15T19:36:04;10.30;99.90
21318;DHT22;10818;50.830;6.524;2023-04-15T19:41:05;10.00;99.90
21318;DHT22;10818;50.830;6.524;2023-04-15T19:46:06;10.00;99.90
21318;DHT22;10818;50.830;6.524;2023-04-15T19:51:06;9.70;99.90
21318;DHT22;10818;50.830;6.524;2023-04-15T19:56:07;9.40;99.90
21318;DHT22;10818;50.830;6.524;2023-04-15T20:01:08;9.40;99.90
21318;DHT22;10818;50.830;6.524;2023-04-15T20:06:08;9.50;99.90
21318;DHT22;10818;50.830;6.524;2023-04-15T20:11:09;9.40;99.90
21318;DHT22;10818;50.830;6.524;2023-04-15T20:16:09;9.50;99.90
21318;DHT22;10818;50.830;6.524;2023-04-15T20:21:11;9.50;99.90
21318;DHT22;10818;50.830;6.524;2023-04-15T20:26:12;9.40;99.90
21318;DHT22;10818;50.830;6.524;2023-04-15T20:31:12;9.20;99.90
21318;DHT22;10818;50.830;6.524;2023-04-15T20:36:13;9.20;99.90
21318;DHT22;10818;50.830;6.524;2023-04-15T20:41:13;9.30;99.90
21318;DHT22;10818;50.830;6.524;2023-04-15T20:46:14;9.30;99.90
21318;DHT22;10818;50.830;6.524;2023-04-15T20:51:14;9.40;99.90
21318;DHT22;10818;50.830;6.524;2023-04-15T20:56:15;9.20;99.90
21318;DHT22;10818;50.830;6.524;2023-04-15T21:01:15;9.30;99.90
21318;DHT22;10818;50.830;6.524;2023-04-15T21:06:16;9.20;99.90
21318;DHT22;10818;50.830;6.524;2023-04-15T21:11:17;9.20;99.90
21318;DHT22;10818;50.830;6.524;2023-04-15T21:16:17;9.30;99.90
21318;DHT22;10818;50.830;6.524;2023-04-15T21:21:18;9.30;99.90
21318;DHT22;10818;50.830;6.524;2023-04-15T21:26:18;9.20;99.90
21318;DHT22;10818;50.830;6.524;2023-04-15T21:31:19;9.20;99.90
21318;DHT22;10818;50.830;6.524;2023-04-15T21:36:19;9.00;99.90
21318;DHT22;10818;50.830;6.524;2023-04-15T21:41:20;9.10;99.90
21318;DHT22;10818;50.830;6.524;2023-04-15T21:46:20;9.20;99.90
21318;DHT22;10818;50.830;6.524;2023-04-15T21:51:21;9.20;99.90
21318;DHT22;10818;50.830;6.524;2023-04-15T21:56:21;9.20;99.90
21318;DHT22;10818;50.830;6.524;2023-04-15T22:01:23;9.10;99.90
21318;DHT22;10818;50.830;6.524;2023-04-15T22:06:23;9.10;99.90
21318;DHT22;10818;50.830;6.524;2023-04-15T22:11:24;8.90;99.90
21318;DHT22;10818;50.830;6.524;2023-04-15T22:16:29;8.80;99.90
21318;DHT22;10818;50.830;6.524;2023-04-15T22:21:30;8.80;99.90
21318;DHT22;10818;50.830;6.524;2023-04-15T22:26:31;8.90;99.90
21318;DHT22;10818;50.830;6.524;2023-04-15T22:31:31;8.80;99.90
21318;DHT22;10818;50.830;6.524;2023-04-15T22:36:31;8.60;99.90
21318;DHT22;10818;50.830;6.524;2023-04-15T22:41:32;8.70;99.90
21318;DHT22;10818;50.830;6.524;2023-04-15T22:46:32;8.80;99.90
21318;DHT22;10818;50.830;6.524;2023-04-15T22:51:33;8.50;99.90
21318;DHT22;10818;50.830;6.524;2023-04-15T22:56:33;8.70;99.90
21318;DHT22;10818;50.830;6.524;2023-04-15T23:01:34;8.70;99.90
21318;DHT22;10818;50.830;6.524;2023-04-15T23:06:34;8.60;99.90
21318;DHT22;10818;50.830;6.524;2023-04-15T23:11:35;8.60;99.90
21318;DHT22;10818;50.830;6.524;2023-04-15T23:16:35;8.60;99.90
21318;DHT22;10818;50.830;6.524;2023-04-15T23:21:36;8.60;99.90
21318;DHT22;10818;50.830;6.524;2023-04-15T23:26:36;8.70;99.90
21318;DHT22;10818;50.830;6.524;2023-04-15T23:31:36;8.70;99.90
21318;DHT22;10818;50.830;6.524;2023-04-15T23:36:37;8.70;99.90
21318;DHT22;10818;50.830;6.524;2023-04-15T23:41:37;8.60;99.90
21318;DHT22;10818;50.830;6.524;2023-04-15T23:46:38;8.70;99.90
21318;DHT22;10818;50.830;6.524;2023-04-15T23:51:38;8.70;99.90
21318;DHT22;10818;50.830;6.524;2023-04-15T23:56:39;8.70;99.90
